Time;durP1;ratioP1;P1;durP2;ratioP2;P2;SDS_P1;SDS_P2;PMS_P1;PMS_P2;Temp;Humidity;BMP_temperature;BMP_pressure;BME280_temperature;BME280_humidity;BME280_pressure;Samples;Min_cycle;Max_cycle;Signal;HPM_P1;HPM_P2
2023/08/23 00:01:59;;;;;;;2.88;1.10;;;37.10;60.40;;;;;;5064579;28;20012;-60
2023/08/23 00:04:26;;;;;;;6.57;1.40;;;37.10;61.30;;;;;;5065934;28;20089;-60
2023/08/23 00:06:53;;;;;;;5.10;1.42;;;37.10;60.60;;;;;;5065847;28;20023;-60
2023/08/23 00:09:19;;;;;;;3.53;1.10;;;36.90;60.80;;;;;;5064665;28;20025;-60
2023/08/23 00:11:46;;;;;;;5.40;1.30;;;37.00;60.60;;;;;;5066035;28;20119;-58
2023/08/23 00:14:12;;;;;;;6.07;1.10;;;36.90;60.10;;;;;;5063050;28;20048;-60
2023/08/23 00:16:39;;;;;;;3.03;1.00;;;36.80;60.70;;;;;;5064720;28;20048;-61
2023/08/23 00:19:05;;;;;;;2.95;1.30;;;36.80;60.80;;;;;;5066268;28;20016;-59
2023/08/23 00:21:32;;;;;;;1.75;1.08;;;36.80;61.20;;;;;;5066321;28;20021;-60
2023/08/23 00:23:58;;;;;;;4.55;1.13;;;36.70;61.00;;;;;;5065550;28;20078;-63
2023/08/23 00:26:25;;;;;;;4.85;1.40;;;36.70;60.80;;;;;;5066027;28;20095;-61
2023/08/23 00:28:51;;;;;;;5.88;1.30;;;36.60;60.90;;;;;;5066528;28;20035;-60
2023/08/23 00:31:17;;;;;;;11.10;1.63;;;36.50;62.20;;;;;;5064888;28;20087;-59
2023/08/23 00:33:44;;;;;;;19.80;2.25;;;36.40;59.30;;;;;;5063478;28;20471;-53
2023/08/23 00:36:10;;;;;;;9.27;1.58;;;36.30;59.20;;;;;;5070893;28;20012;-60
2023/08/23 00:38:37;;;;;;;10.50;1.45;;;36.20;58.80;;;;;;5069388;28;20507;-60
2023/08/23 00:41:03;;;;;;;4.20;1.58;;;36.10;60.00;;;;;;5068247;28;20032;-62
2023/08/23 00:43:29;;;;;;;4.63;1.20;;;36.10;60.50;;;;;;5065473;28;20540;-60
2023/08/23 00:45:56;;;;;;;3.25;1.23;;;36.10;59.50;;;;;;5063394;28;20025;-58
2023/08/23 00:48:22;;;;;;;7.15;1.58;;;36.10;61.20;;;;;;5062536;28;20480;-60
2023/08/23 00:50:49;;;;;;;4.50;1.27;;;36.00;60.00;;;;;;5066107;28;20021;-60
2023/08/23 00:53:16;;;;;;;5.65;1.30;;;36.00;59.70;;;;;;5071822;28;20051;-60
2023/08/23 00:55:42;;;;;;;12.00;1.70;;;35.90;61.90;;;;;;5065960;28;20162;-61
2023/08/23 00:58:09;;;;;;;3.78;1.08;;;35.90;61.00;;;;;;5066632;28;20013;-61
2023/08/23 01:00:35;;;;;;;4.95;1.27;;;35.80;59.60;;;;;;5066088;28;20420;-60
2023/08/23 01:03:02;;;;;;;6.97;1.52;;;35.80;60.50;;;;;;5070910;28;20397;-61
2023/08/23 01:05:51;;;;;;;7.28;1.67;;;35.80;59.40;;;;;;5073767;28;20404;-60
2023/08/23 01:08:28;;;;;;;4.10;1.60;;;35.70;59.60;;;;;;5072520;28;20025;-62
2023/08/23 01:11:30;;;;;;;7.18;1.33;;;35.60;59.40;;;;;;5068475;28;20021;-60
2023/08/23 01:14:02;;;;;;;4.25;1.50;;;35.50;59.90;;;;;;5026042;28;20041;-58
2023/08/23 01:16:33;;;;;;;8.68;1.48;;;35.50;59.70;;;;;;5032433;28;20468;-60
2023/08/23 01:19:08;;;;;;;5.57;1.40;;;35.40;60.30;;;;;;5011588;28;20477;-63
2023/08/23 01:21:38;;;;;;;6.03;1.42;;;35.40;59.90;;;;;;5024303;28;20072;-60
2023/08/23 01:24:08;;;;;;;5.70;1.55;;;35.40;60.60;;;;;;5027385;28;20484;-61
2023/08/23 01:26:38;;;;;;;4.75;1.52;;;35.40;61.50;;;;;;5027746;28;20029;-60
2023/08/23 01:29:05;;;;;;;7.65;1.60;;;35.30;60.30;;;;;;5028063;28;20020;-60
2023/08/23 01:31:37;;;;;;;4.82;1.50;;;35.20;61.30;;;;;;5024298;28;20030;-58
2023/08/23 01:34:27;;;;;;;3.83;1.40;;;35.20;61.10;;;;;;5033126;28;20041;-61
2023/08/23 01:36:54;;;;;;;3.65;1.27;;;35.00;61.10;;;;;;5027466;28;20502;-61
2023/08/23 01:39:24;;;;;;;5.80;1.58;;;35.00;61.90;;;;;;5028419;28;20023;-61
2023/08/23 01:41:51;;;;;;;4.25;1.45;;;35.00;61.60;;;;;;5028047;28;20063;-60
2023/08/23 01:44:18;;;;;;;5.50;1.55;;;34.90;61.20;;;;;;5034597;28;20033;-59
2023/08/23 01:46:44;;;;;;;3.70;1.50;;;34.80;59.90;;;;;;5024007;28;20477;-61
2023/08/23 01:49:11;;;;;;;6.38;1.70;;;34.80;59.40;;;;;;5029274;28;20413;-62
2023/08/23 01:51:37;;;;;;;7.78;3.47;;;34.70;61.40;;;;;;5071798;28;20418;-57
2023/08/23 01:54:04;;;;;;;8.40;1.80;;;34.70;60.20;;;;;;5066995;28;20384;-60
2023/08/23 01:56:30;;;;;;;6.10;1.58;;;34.60;62.30;;;;;;5067442;28;20009;-59
2023/08/23 01:58:56;;;;;;;3.67;1.40;;;34.50;63.30;;;;;;5074763;28;20020;-62
2023/08/23 02:01:23;;;;;;;6.72;1.35;;;34.40;63.20;;;;;;5069898;28;20017;-61
2023/08/23 02:03:49;;;;;;;3.95;1.40;;;34.40;63.40;;;;;;5072324;28;20507;-60
2023/08/23 02:06:15;;;;;;;3.05;0.98;;;34.30;63.40;;;;;;5069627;28;20454;-63
2023/08/23 02:08:42;;;;;;;4.53;1.00;;;34.20;63.10;;;;;;5072210;28;20032;-58
2023/08/23 02:11:08;;;;;;;5.13;1.33;;;34.10;64.20;;;;;;5068320;28;20476;-59
2023/08/23 02:13:35;;;;;;;2.05;1.08;;;34.00;64.80;;;;;;5070214;28;20477;-59
2023/08/23 02:16:02;;;;;;;5.00;1.35;;;33.90;64.50;;;;;;5067923;28;20016;-59
2023/08/23 02:18:28;;;;;;;7.22;2.05;;;33.90;63.80;;;;;;5064258;28;20380;-60
2023/08/23 02:20:56;;;;;;;8.65;2.20;;;33.80;63.50;;;;;;5067158;28;20013;-63
2023/08/23 02:23:23;;;;;;;6.00;1.90;;;33.70;63.90;;;;;;5066896;28;20461;-62
2023/08/23 02:25:49;;;;;;;5.43;1.58;;;33.70;65.00;;;;;;5065888;28;20078;-62
2023/08/23 02:28:16;;;;;;;10.13;2.60;;;33.60;64.30;;;;;;5067111;28;20047;-61
2023/08/23 02:30:42;;;;;;;5.63;2.30;;;33.60;63.40;;;;;;5067622;28;20013;-60
2023/08/23 02:33:12;;;;;;;7.13;2.53;;;33.50;63.40;;;;;;5067643;28;20009;-62
2023/08/23 02:35:44;;;;;;;7.55;2.05;;;33.40;64.20;;;;;;5068507;28;20092;-61
2023/08/23 02:38:12;;;;;;;11.32;1.90;;;33.40;63.90;;;;;;5068262;28;20013;-61
2023/08/23 02:40:42;;;;;;;8.88;2.58;;;33.30;64.50;;;;;;5070224;28;20040;-60
2023/08/23 02:43:09;;;;;;;6.10;2.33;;;33.30;64.40;;;;;;5069684;28;20511;-62
2023/08/23 02:45:39;;;;;;;7.35;2.53;;;33.20;64.50;;;;;;5068273;28;20568;-62
2023/08/23 02:48:10;;;;;;;8.50;3.03;;;33.20;65.20;;;;;;5068185;28;20021;-61
2023/08/23 02:50:37;;;;;;;7.18;2.60;;;33.10;65.30;;;;;;5065091;28;20056;-63
2023/08/23 02:53:04;;;;;;;5.47;2.17;;;33.10;64.90;;;;;;5067157;28;20424;-60
2023/08/23 02:55:33;;;;;;;7.82;2.97;;;33.10;66.50;;;;;;5070112;28;20043;-62
2023/08/23 02:58:00;;;;;;;7.60;2.60;;;33.10;66.20;;;;;;5067722;28;20089;-60
2023/08/23 03:00:26;;;;;;;10.27;2.60;;;33.00;67.00;;;;;;5066017;28;20039;-63
2023/08/23 03:02:52;;;;;;;6.57;2.47;;;33.00;67.20;;;;;;5066327;28;20013;-62
2023/08/23 03:05:19;;;;;;;9.32;3.10;;;32.90;67.80;;;;;;5069892;28;20055;-62
2023/08/23 03:07:45;;;;;;;10.77;3.50;;;32.90;67.90;;;;;;5065936;28;20024;-60
2023/08/23 03:10:13;;;;;;;11.40;3.00;;;32.80;67.60;;;;;;5068784;28;20098;-61
2023/08/23 03:12:39;;;;;;;9.55;2.47;;;32.80;68.20;;;;;;5075216;28;20046;-60
2023/08/23 03:15:07;;;;;;;6.38;2.40;;;32.70;68.10;;;;;;5071702;28;20027;-61
2023/08/23 03:17:33;;;;;;;12.98;1.95;;;32.60;68.80;;;;;;5067915;28;20147;-62
2023/08/23 03:19:59;;;;;;;11.32;2.42;;;32.60;69.00;;;;;;5076790;28;20013;-61
2023/08/23 03:22:26;;;;;;;18.75;2.97;;;32.50;68.20;;;;;;5069959;28;20465;-61
2023/08/23 03:24:52;;;;;;;8.50;2.20;;;32.40;68.70;;;;;;5067816;28;20023;-61
2023/08/23 03:27:19;;;;;;;13.05;2.85;;;32.40;69.40;;;;;;5071286;28;20481;-59
2023/08/23 03:29:46;;;;;;;10.23;2.53;;;32.40;68.90;;;;;;5066888;28;20117;-61
2023/08/23 03:32:13;;;;;;;11.88;2.30;;;32.30;68.90;;;;;;5070784;28;20043;-61
2023/08/23 03:34:39;;;;;;;15.13;2.65;;;32.20;68.60;;;;;;5070444;28;20093;-62
2023/08/23 03:37:06;;;;;;;12.60;2.40;;;32.20;69.20;;;;;;5070535;28;20017;-62
2023/08/23 03:39:32;;;;;;;13.82;2.30;;;32.10;68.80;;;;;;5067021;28;20020;-64
2023/08/23 03:41:59;;;;;;;12.48;2.67;;;32.10;69.00;;;;;;5067285;28;20590;-62
2023/08/23 03:44:25;;;;;;;10.20;2.35;;;32.10;68.60;;;;;;5066122;28;20021;-62
2023/08/23 03:46:51;;;;;;;9.23;2.67;;;32.00;68.50;;;;;;5068308;28;20030;-65
2023/08/23 03:49:18;;;;;;;12.65;2.38;;;31.90;68.30;;;;;;5066245;28;20023;-64
2023/08/23 03:51:44;;;;;;;10.30;2.28;;;31.80;69.90;;;;;;5062495;28;20094;-62
2023/08/23 03:54:11;;;;;;;13.05;2.70;;;31.80;71.00;;;;;;5068728;28;20447;-65
2023/08/23 03:56:37;;;;;;;13.35;3.03;;;31.70;70.60;;;;;;5068380;28;20079;-62
2023/08/23 03:59:04;;;;;;;17.65;3.20;;;31.60;70.00;;;;;;5070322;28;20027;-63
2023/08/23 04:01:30;;;;;;;26.92;3.65;;;31.60;70.20;;;;;;5069277;28;20031;-61
2023/08/23 04:03:57;;;;;;;21.35;3.92;;;31.60;71.20;;;;;;5065952;28;20048;-61
2023/08/23 04:06:23;;;;;;;11.77;3.70;;;31.50;72.00;;;;;;5070220;28;20017;-61
2023/08/23 04:08:49;;;;;;;24.80;3.90;;;31.40;72.60;;;;;;5075851;28;20435;-62
2023/08/23 04:11:16;;;;;;;16.90;4.03;;;31.40;72.80;;;;;;5068274;28;20047;-58
2023/08/23 04:13:42;;;;;;;16.40;3.90;;;31.40;73.40;;;;;;5064398;28;20047;-60
2023/08/23 04:16:11;;;;;;;23.42;4.40;;;31.40;73.50;;;;;;5067432;28;20020;-61
2023/08/23 04:18:37;;;;;;;19.92;3.80;;;31.30;74.00;;;;;;5066844;28;20016;-61
2023/08/23 04:21:04;;;;;;;16.38;3.78;;;31.20;74.70;;;;;;5064457;28;20011;-62
2023/08/23 04:23:30;;;;;;;17.23;4.00;;;31.20;74.70;;;;;;5065736;28;20066;-62
2023/08/23 04:25:57;;;;;;;15.80;3.95;;;31.10;73.90;;;;;;5066946;28;20074;-62
2023/08/23 04:28:23;;;;;;;17.98;4.60;;;31.00;74.40;;;;;;5066320;28;20514;-63
2023/08/23 04:30:49;;;;;;;25.50;4.95;;;31.00;76.40;;;;;;5068585;28;20499;-64
2023/08/23 04:33:17;;;;;;;23.20;4.97;;;30.90;76.50;;;;;;5067245;28;20043;-61
2023/08/23 04:35:44;;;;;;;21.60;5.03;;;30.90;76.50;;;;;;5066764;28;20051;-63
2023/08/23 04:38:13;;;;;;;22.15;4.15;;;30.80;76.80;;;;;;5067895;28;20206;-64
2023/08/23 04:40:40;;;;;;;23.02;5.22;;;30.80;76.80;;;;;;5068987;28;20035;-54
2023/08/23 04:43:06;;;;;;;26.48;4.22;;;31.10;76.80;;;;;;5069271;28;20023;-59
2023/08/23 04:45:37;;;;;;;23.63;4.05;;;31.20;75.60;;;;;;5067200;28;20024;-59
2023/08/23 04:48:04;;;;;;;26.92;4.20;;;31.20;77.10;;;;;;5066276;28;20062;-58
2023/08/23 04:50:31;;;;;;;22.30;4.35;;;31.30;75.50;;;;;;5067021;28;20098;-56
2023/08/23 04:52:57;;;;;;;26.75;4.80;;;31.30;75.40;;;;;;5068490;28;20039;-54
2023/08/23 04:55:23;;;;;;;24.52;4.40;;;31.30;75.20;;;;;;5067930;28;20025;-57
2023/08/23 04:57:50;;;;;;;16.92;4.80;;;31.30;75.80;;;;;;5067126;28;21278;-56
2023/08/23 05:00:16;;;;;;;28.17;4.80;;;31.40;75.70;;;;;;5066873;28;20034;-57
2023/08/23 05:02:43;;;;;;;25.13;4.82;;;31.40;75.40;;;;;;5066402;28;20017;-60
2023/08/23 05:05:09;;;;;;;45.35;5.75;;;31.50;75.60;;;;;;5062903;28;20013;-60
2023/08/23 05:07:35;;;;;;;29.88;4.60;;;31.50;77.00;;;;;;5064863;28;20033;-59
2023/08/23 05:10:04;;;;;;;21.52;4.88;;;31.50;77.40;;;;;;5065471;28;20078;-58
2023/08/23 05:12:32;;;;;;;44.10;5.80;;;31.40;78.10;;;;;;5063472;28;20020;-59
2023/08/23 05:14:58;;;;;;;36.42;5.53;;;31.40;77.80;;;;;;5066486;28;20088;-57
2023/08/23 05:17:25;;;;;;;31.25;5.72;;;31.40;76.30;;;;;;5066715;28;20460;-59
2023/08/23 05:19:51;;;;;;;42.35;7.20;;;31.40;75.90;;;;;;5065981;28;20021;-55
2023/08/23 05:22:18;;;;;;;39.38;7.40;;;31.50;75.80;;;;;;5067793;28;20468;-53
2023/08/23 05:24:44;;;;;;;32.47;7.25;;;31.50;75.00;;;;;;5069280;28;20468;-59
2023/08/23 05:27:10;;;;;;;49.35;7.82;;;31.50;73.60;;;;;;5072931;28;20012;-56
2023/08/23 05:29:37;;;;;;;40.83;8.15;;;31.50;74.60;;;;;;5070067;28;20028;-58
2023/08/23 05:32:03;;;;;;;43.75;7.30;;;31.60;75.40;;;;;;5066146;28;20027;-52
2023/08/23 05:34:30;;;;;;;47.50;8.48;;;31.60;75.20;;;;;;5064206;28;20644;-62
2023/08/23 05:36:56;;;;;;;45.65;8.45;;;31.60;75.10;;;;;;5066462;28;20043;-58
2023/08/23 05:39:23;;;;;;;49.22;8.65;;;31.50;76.10;;;;;;5066168;28;20021;-61
2023/08/23 05:41:49;;;;;;;55.00;8.85;;;31.60;76.70;;;;;;5066036;28;20463;-56
2023/08/23 05:44:15;;;;;;;52.20;8.98;;;31.50;76.80;;;;;;5069089;28;20074;-57
2023/08/23 05:46:42;;;;;;;51.83;9.00;;;31.50;76.50;;;;;;5066638;28;20035;-58
2023/08/23 05:49:08;;;;;;;52.03;8.68;;;31.60;75.90;;;;;;5062327;28;20073;-57
2023/08/23 05:51:35;;;;;;;56.90;8.20;;;31.50;77.00;;;;;;5063798;28;20050;-57
2023/08/23 05:54:01;;;;;;;41.47;8.65;;;31.40;78.20;;;;;;5063837;28;20480;-59
2023/08/23 05:56:27;;;;;;;49.88;7.90;;;31.30;79.60;;;;;;5065814;28;20066;-53
2023/08/23 05:58:54;;;;;;;48.97;8.57;;;31.20;79.00;;;;;;5064998;28;20005;-54
2023/08/23 06:01:20;;;;;;;54.15;8.90;;;31.10;79.30;;;;;;5065381;28;20039;-58
2023/08/23 06:03:47;;;;;;;47.80;8.50;;;31.10;79.10;;;;;;5065574;28;20055;-56
2023/08/23 06:06:13;;;;;;;44.55;8.02;;;31.00;77.80;;;;;;5064746;28;20070;-55
2023/08/23 06:08:40;;;;;;;39.65;7.28;;;31.00;78.50;;;;;;5066743;28;20050;-61
2023/08/23 06:11:06;;;;;;;38.10;8.20;;;31.00;78.20;;;;;;5064174;28;20063;-56
2023/08/23 06:13:33;;;;;;;45.75;7.07;;;31.00;77.90;;;;;;5064965;28;20017;-60
2023/08/23 06:15:59;;;;;;;33.65;6.95;;;31.00;77.90;;;;;;5067550;28;20035;-56
2023/08/23 06:18:26;;;;;;;37.22;6.97;;;31.00;78.80;;;;;;5065985;28;20020;-57
2023/08/23 06:20:52;;;;;;;42.70;6.65;;;31.00;79.20;;;;;;5068498;28;20015;-58
2023/08/23 06:23:18;;;;;;;32.72;6.20;;;30.90;79.90;;;;;;5062325;28;20143;-58
2023/08/23 06:25:45;;;;;;;43.95;7.32;;;30.90;79.30;;;;;;5065712;28;20017;-54
2023/08/23 06:28:11;;;;;;;28.83;6.78;;;30.80;79.50;;;;;;5065354;28;20047;-57
2023/08/23 06:30:38;;;;;;;32.00;6.70;;;30.80;81.30;;;;;;5066260;28;20043;-57
2023/08/23 06:33:05;;;;;;;32.95;6.90;;;30.70;82.30;;;;;;5066479;28;20039;-58
2023/08/23 06:35:32;;;;;;;42.08;7.63;;;30.70;80.60;;;;;;5064231;28;20060;-55
2023/08/23 06:37:58;;;;;;;33.95;6.47;;;30.70;79.70;;;;;;5066159;28;20535;-57
2023/08/23 06:40:25;;;;;;;30.05;7.30;;;30.60;79.40;;;;;;5066888;28;20047;-57
2023/08/23 06:42:51;;;;;;;32.83;7.07;;;30.60;79.60;;;;;;5068869;28;20016;-52
2023/08/23 06:45:18;;;;;;;32.55;7.50;;;30.60;81.90;;;;;;5076119;28;20025;-57
2023/08/23 06:47:44;;;;;;;35.08;7.32;;;30.60;80.30;;;;;;5069369;28;20016;-59
2023/08/23 06:50:11;;;;;;;27.98;7.53;;;30.50;81.20;;;;;;5068779;28;20418;-56
2023/08/23 06:52:37;;;;;;;31.45;8.23;;;30.50;81.90;;;;;;5070878;28;20040;-59
2023/08/23 06:55:04;;;;;;;28.63;7.80;;;30.50;81.30;;;;;;5070481;28;20054;-59
2023/08/23 06:57:30;;;;;;;31.90;7.72;;;30.40;80.80;;;;;;5070448;28;20056;-56
2023/08/23 06:59:58;;;;;;;37.47;7.32;;;30.40;79.90;;;;;;5067879;28;20062;-59
2023/08/23 07:02:26;;;;;;;28.20;7.55;;;30.40;80.80;;;;;;5069904;28;20094;-59
2023/08/23 07:04:53;;;;;;;21.73;7.75;;;30.40;81.00;;;;;;5069074;28;20470;-59
2023/08/23 07:07:20;;;;;;;26.48;8.45;;;30.40;81.10;;;;;;5071359;28;20518;-57
2023/08/23 07:09:47;;;;;;;26.05;7.70;;;30.40;81.30;;;;;;5069415;28;20017;-58
2023/08/23 07:12:14;;;;;;;37.00;7.70;;;30.40;81.50;;;;;;5071194;28;20053;-59
2023/08/23 07:14:40;;;;;;;42.08;8.75;;;30.40;80.40;;;;;;5067221;28;20132;-60
2023/08/23 07:17:07;;;;;;;39.15;9.25;;;30.30;81.10;;;;;;5067134;28;20102;-61
2023/08/23 07:19:34;;;;;;;33.83;8.93;;;30.30;80.80;;;;;;5067936;28;20043;-58
2023/08/23 07:22:01;;;;;;;44.92;8.20;;;30.20;80.70;;;;;;5067872;28;20036;-56
2023/08/23 07:24:27;;;;;;;32.47;7.63;;;30.20;80.60;;;;;;5068559;28;20101;-58
2023/08/23 07:26:55;;;;;;;30.40;6.60;;;30.20;81.20;;;;;;5068443;28;20419;-59
2023/08/23 07:29:21;;;;;;;23.45;6.45;;;30.20;82.20;;;;;;5069666;28;20051;-58
2023/08/23 07:31:48;;;;;;;28.58;6.63;;;30.10;82.80;;;;;;5068628;28;20054;-59
2023/08/23 07:34:15;;;;;;;25.48;6.55;;;30.10;83.80;;;;;;5065619;28;20175;-64
2023/08/23 07:36:41;;;;;;;20.58;5.50;;;30.00;83.70;;;;;;5066023;28;20097;-57
2023/08/23 07:39:08;;;;;;;21.08;5.57;;;29.90;84.20;;;;;;5067033;28;20036;-57
2023/08/23 07:41:34;;;;;;;13.27;4.72;;;29.90;84.80;;;;;;5067342;28;20041;-59
2023/08/23 07:44:01;;;;;;;25.23;5.93;;;29.90;85.00;;;;;;5065986;28;20053;-61
2023/08/23 07:46:27;;;;;;;10.80;4.45;;;29.80;86.20;;;;;;5065331;28;20049;-58
2023/08/23 07:48:53;;;;;;;16.90;5.03;;;29.80;85.20;;;;;;5066587;28;20110;-53
2023/08/23 07:51:20;;;;;;;11.80;4.55;;;29.70;85.80;;;;;;5066445;28;20043;-62
2023/08/23 07:53:47;;;;;;;11.68;5.00;;;29.70;86.60;;;;;;5063510;28;20151;-53
2023/08/23 07:56:14;;;;;;;16.88;4.97;;;29.70;87.30;;;;;;5065654;28;20045;-54
2023/08/23 07:58:41;;;;;;;13.07;4.32;;;29.60;87.90;;;;;;5065234;28;20077;-55
2023/08/23 08:01:07;;;;;;;11.10;3.75;;;29.60;87.30;;;;;;5053897;22;20096;-59
2023/08/23 08:03:34;;;;;;;13.55;3.38;;;29.50;87.00;;;;;;5028128;28;20054;-56
2023/08/23 08:06:00;;;;;;;14.90;3.25;;;29.50;87.50;;;;;;5027819;28;20060;-57
2023/08/23 08:08:27;;;;;;;13.52;3.30;;;29.50;87.70;;;;;;5026141;28;20042;-57
2023/08/23 08:10:53;;;;;;;8.27;3.00;;;29.40;87.90;;;;;;5026561;28;20078;-55
2023/08/23 08:13:20;;;;;;;15.55;2.85;;;29.40;88.60;;;;;;5026713;28;20562;-58
2023/08/23 08:15:47;;;;;;;11.32;3.03;;;29.40;88.60;;;;;;5027008;28;20094;-57
2023/08/23 08:18:13;;;;;;;7.55;2.53;;;29.40;88.90;;;;;;5028149;28;20132;-58
2023/08/23 08:20:39;;;;;;;4.93;2.67;;;29.30;89.10;;;;;;5028603;28;21466;-57
2023/08/23 08:23:06;;;;;;;6.57;2.67;;;29.30;88.90;;;;;;5028230;28;20059;-58
2023/08/23 08:25:32;;;;;;;9.98;2.65;;;29.30;89.70;;;;;;5028912;28;20788;-58
2023/08/23 08:27:59;;;;;;;11.05;3.40;;;29.30;89.60;;;;;;5026635;28;20151;-57
2023/08/23 08:30:25;;;;;;;7.70;3.05;;;29.20;89.80;;;;;;5027381;28;20142;-56
2023/08/23 08:32:51;;;;;;;11.80;3.47;;;29.20;89.20;;;;;;5026650;28;20049;-55
2023/08/23 08:35:18;;;;;;;5.60;3.03;;;29.20;89.30;;;;;;5026254;28;20063;-56
2023/08/23 08:37:44;;;;;;;12.55;3.00;;;29.20;89.40;;;;;;5026367;28;20049;-55
2023/08/23 08:40:11;;;;;;;14.07;3.17;;;29.10;90.00;;;;;;5026944;28;20069;-57
2023/08/23 08:42:38;;;;;;;13.07;3.03;;;29.10;89.30;;;;;;5026824;28;20049;-59
2023/08/23 08:45:06;;;;;;;11.20;2.67;;;29.20;89.00;;;;;;5026967;28;20046;-57
2023/08/23 08:47:33;;;;;;;9.85;2.60;;;29.10;89.00;;;;;;5026784;28;20078;-58
2023/08/23 08:49:59;;;;;;;5.40;2.17;;;29.10;89.10;;;;;;5026594;28;20127;-63
2023/08/23 08:52:28;;;;;;;7.28;2.58;;;29.10;89.00;;;;;;5029958;28;20458;-58
2023/08/23 08:54:57;;;;;;;7.85;2.20;;;29.10;89.60;;;;;;5026465;28;20123;-56
2023/08/23 08:57:25;;;;;;;10.82;2.90;;;29.10;90.30;;;;;;5036299;28;20045;-53
2023/08/23 08:59:53;;;;;;;9.70;3.00;;;29.10;90.40;;;;;;5045707;28;20051;-53
2023/08/23 09:02:20;;;;;;;4.68;2.20;;;29.00;90.20;;;;;;5047321;28;20097;-58
2023/08/23 09:04:47;;;;;;;5.90;2.65;;;29.00;90.00;;;;;;5051301;28;20111;-52
2023/08/23 09:07:14;;;;;;;10.85;2.42;;;29.00;90.30;;;;;;5046364;28;20042;-57
2023/08/23 09:09:42;;;;;;;5.60;2.33;;;29.10;90.00;;;;;;5045471;28;20106;-55
2023/08/23 09:12:09;;;;;;;4.20;2.00;;;29.10;90.00;;;;;;5047236;28;20424;-56
2023/08/23 09:14:37;;;;;;;5.22;2.05;;;29.10;90.00;;;;;;5045788;28;20428;-58
2023/08/23 09:17:05;;;;;;;5.53;2.17;;;29.20;90.10;;;;;;5046137;28;20049;-57
2023/08/23 09:19:35;;;;;;;5.72;1.88;;;29.10;89.90;;;;;;5046130;28;20381;-59
2023/08/23 09:22:04;;;;;;;7.00;2.33;;;29.10;90.50;;;;;;5046030;28;20058;-56
2023/08/23 09:24:31;;;;;;;7.22;2.33;;;29.10;90.40;;;;;;5049606;28;20522;-57
2023/08/23 09:26:57;;;;;;;4.95;2.33;;;29.10;90.70;;;;;;5057620;28;20067;-59
2023/08/23 09:29:24;;;;;;;5.80;2.00;;;29.10;90.80;;;;;;5045977;28;20055;-56
2023/08/23 09:31:51;;;;;;;5.32;2.15;;;29.00;90.90;;;;;;5045548;28;20047;-55
2023/08/23 09:34:17;;;;;;;8.07;2.30;;;29.00;91.10;;;;;;5045822;28;20063;-57
2023/08/23 09:36:44;;;;;;;4.95;1.85;;;29.00;91.20;;;;;;5046035;28;20052;-54
2023/08/23 09:39:11;;;;;;;3.60;2.25;;;29.00;91.30;;;;;;5048533;28;20611;-55
2023/08/23 09:41:42;;;;;;;7.28;2.00;;;29.00;91.30;;;;;;5046158;28;20044;-58
2023/08/23 09:44:09;;;;;;;6.43;1.85;;;29.00;91.30;;;;;;5054120;28;20524;-56
2023/08/23 09:46:39;;;;;;;3.20;1.95;;;28.90;91.20;;;;;;5053758;28;20051;-54
2023/08/23 09:49:06;;;;;;;7.20;2.00;;;28.90;91.50;;;;;;5044606;28;20532;-53
2023/08/23 09:51:37;;;;;;;6.05;2.10;;;28.80;91.80;;;;;;5047043;28;20080;-52
2023/08/23 09:54:35;;;;;;;6.80;2.42;;;28.80;91.50;;;;;;5044490;28;20064;-58
2023/08/23 09:57:02;;;;;;;8.32;2.55;;;28.70;91.60;;;;;;5044993;28;20048;-56
2023/08/23 09:59:29;;;;;;;7.63;2.30;;;28.70;91.40;;;;;;5046774;28;20131;-57
2023/08/23 10:01:56;;;;;;;6.55;2.53;;;28.70;91.60;;;;;;5046556;28;20432;-58
2023/08/23 10:04:24;;;;;;;4.95;2.45;;;28.70;91.30;;;;;;5045434;28;20168;-59
2023/08/23 10:06:52;;;;;;;5.55;2.25;;;28.70;91.90;;;;;;5047233;28;20449;-56
2023/08/23 10:09:21;;;;;;;5.57;2.20;;;28.60;91.10;;;;;;5044223;28;20058;-53
2023/08/23 10:11:49;;;;;;;6.05;2.10;;;28.70;91.30;;;;;;5048125;28;20059;-56
2023/08/23 10:14:17;;;;;;;5.32;2.35;;;28.60;91.10;;;;;;5043854;28;20435;-56
2023/08/23 10:16:44;;;;;;;4.30;2.20;;;28.70;91.50;;;;;;5046476;28;20049;-58
2023/08/23 10:19:10;;;;;;;7.18;2.33;;;28.70;91.30;;;;;;5048727;28;20866;-59
2023/08/23 10:21:37;;;;;;;9.18;2.60;;;28.60;91.10;;;;;;5048789;28;20398;-55
2023/08/23 10:24:07;;;;;;;8.93;2.58;;;28.60;91.50;;;;;;5054062;28;20083;-55
2023/08/23 10:26:45;;;;;;;9.73;3.00;;;28.60;91.60;;;;;;5049675;28;20045;-55
2023/08/23 10:29:12;;;;;;;6.47;2.45;;;28.60;91.40;;;;;;5049453;28;20111;-53
2023/08/23 10:31:52;;;;;;;7.82;2.70;;;28.60;91.30;;;;;;5048822;28;20053;-57
2023/08/23 10:34:24;;;;;;;5.25;2.47;;;28.60;91.20;;;;;;5048209;28;20072;-60
2023/08/23 10:36:53;;;;;;;7.20;2.30;;;28.60;91.30;;;;;;5049059;28;20576;-55
2023/08/23 10:39:22;;;;;;;6.65;2.58;;;28.60;91.20;;;;;;5049103;28;20055;-53
2023/08/23 10:41:55;;;;;;;6.38;2.35;;;28.60;91.10;;;;;;5049131;28;20047;-55
2023/08/23 10:44:22;;;;;;;5.45;2.33;;;28.60;91.20;;;;;;5048522;28;20084;-62
2023/08/23 10:46:51;;;;;;;4.60;1.90;;;28.60;91.30;;;;;;5049053;28;20520;-57
2023/08/23 10:49:22;;;;;;;4.53;2.13;;;28.60;90.80;;;;;;5048768;28;20050;-56
2023/08/23 10:51:50;;;;;;;4.25;1.92;;;28.50;91.30;;;;;;5052599;28;20044;-53
2023/08/23 10:54:16;;;;;;;6.38;2.13;;;28.60;91.00;;;;;;5053854;28;20067;-57
2023/08/23 10:56:43;;;;;;;3.95;2.30;;;28.50;91.10;;;;;;5049795;28;20049;-57
2023/08/23 10:59:09;;;;;;;6.95;2.30;;;28.50;91.10;;;;;;5054660;28;20051;-57
2023/08/23 11:01:39;;;;;;;8.80;2.55;;;28.50;90.80;;;;;;5048871;28;20065;-53
2023/08/23 11:04:09;;;;;;;5.03;2.53;;;28.50;91.00;;;;;;5047866;28;20050;-55
2023/08/23 11:06:36;;;;;;;10.68;3.03;;;28.50;90.80;;;;;;5048583;28;20062;-55
2023/08/23 11:09:02;;;;;;;10.07;2.65;;;28.50;91.00;;;;;;5049171;28;20112;-56
2023/08/23 11:11:30;;;;;;;5.97;2.80;;;28.50;91.20;;;;;;5048391;28;20053;-54
2023/08/23 11:13:57;;;;;;;8.52;2.65;;;28.50;91.30;;;;;;5048008;28;20058;-56
2023/08/23 11:16:23;;;;;;;10.02;2.97;;;28.50;91.70;;;;;;5047803;28;20083;-55
2023/08/23 11:18:53;;;;;;;5.13;2.47;;;28.50;92.00;;;;;;5048514;28;20419;-58
2023/08/23 11:21:20;;;;;;;9.57;3.05;;;28.40;92.30;;;;;;5047298;28;20110;-58
2023/08/23 11:23:47;;;;;;;13.65;3.38;;;28.40;92.50;;;;;;5051519;28;20090;-58
2023/08/23 11:26:14;;;;;;;10.80;3.45;;;28.40;92.70;;;;;;5049553;28;20054;-54
2023/08/23 11:28:40;;;;;;;7.18;3.25;;;28.40;93.20;;;;;;5047737;28;20080;-58
2023/08/23 11:31:08;;;;;;;8.82;3.38;;;28.40;93.40;;;;;;5048454;28;20056;-58
2023/08/23 11:33:38;;;;;;;8.40;3.30;;;28.40;93.90;;;;;;5048427;28;20036;-56
2023/08/23 11:36:05;;;;;;;9.57;3.55;;;28.40;94.20;;;;;;5048160;28;20065;-56
2023/08/23 11:38:32;;;;;;;9.48;3.15;;;28.40;94.40;;;;;;5048262;28;20131;-57
2023/08/23 11:40:58;;;;;;;9.52;3.00;;;28.40;94.40;;;;;;5047517;28;20045;-55
2023/08/23 11:43:29;;;;;;;7.55;3.15;;;28.30;94.60;;;;;;5047741;28;20103;-57
2023/08/23 11:45:56;;;;;;;9.30;3.53;;;28.30;95.00;;;;;;5047279;28;20129;-57
2023/08/23 11:48:23;;;;;;;7.05;3.20;;;28.20;95.50;;;;;;5048287;28;20081;-57
2023/08/23 11:50:54;;;;;;;9.85;3.08;;;28.10;95.10;;;;;;5050685;28;20059;-54
2023/08/23 11:53:20;;;;;;;8.00;2.97;;;28.10;95.10;;;;;;5048893;28;20205;-56
2023/08/23 11:55:50;;;;;;;8.20;3.08;;;28.10;95.30;;;;;;5048502;28;20531;-55
2023/08/23 11:58:16;;;;;;;9.05;2.83;;;28.00;95.20;;;;;;5047539;28;20074;-56
2023/08/23 12:00:42;;;;;;;10.65;3.10;;;28.00;95.50;;;;;;5047583;28;20068;-55
2023/08/23 12:03:10;;;;;;;7.68;2.88;;;28.10;95.50;;;;;;5047667;28;20052;-55
2023/08/23 12:05:36;;;;;;;7.25;2.95;;;28.10;95.60;;;;;;5054420;28;20061;-54
2023/08/23 12:08:03;;;;;;;10.90;2.90;;;28.00;95.50;;;;;;5046812;28;20600;-56
2023/08/23 12:10:30;;;;;;;9.13;3.28;;;27.90;95.80;;;;;;5050870;28;20148;-59
2023/08/23 12:12:56;;;;;;;7.07;2.63;;;27.90;95.70;;;;;;5046916;28;20053;-54
2023/08/23 12:15:23;;;;;;;6.10;2.97;;;27.90;95.50;;;;;;5046942;28;20066;-58
2023/08/23 12:17:49;;;;;;;5.30;2.58;;;27.90;95.50;;;;;;5047012;28;20055;-62
2023/08/23 12:20:16;;;;;;;7.38;2.42;;;27.90;95.60;;;;;;5047010;28;20050;-60
2023/08/23 12:22:46;;;;;;;10.93;2.78;;;27.80;95.20;;;;;;5046764;28;20533;-57
2023/08/23 12:25:13;;;;;;;7.20;2.50;;;27.80;94.90;;;;;;5048339;28;20518;-57
2023/08/23 12:27:40;;;;;;;5.97;2.58;;;27.80;95.40;;;;;;5046696;28;20059;-51
2023/08/23 12:30:09;;;;;;;4.95;2.30;;;27.80;95.10;;;;;;5045396;28;20056;-56
2023/08/23 12:32:36;;;;;;;3.42;2.38;;;27.70;94.90;;;;;;5049066;28;20102;-57
2023/08/23 12:35:06;;;;;;;6.60;2.38;;;27.80;94.80;;;;;;5054095;28;20058;-58
2023/08/23 12:37:33;;;;;;;3.90;2.25;;;27.80;94.70;;;;;;5050582;28;20177;-58
2023/08/23 12:39:59;;;;;;;4.07;2.10;;;27.70;94.90;;;;;;5046140;28;20049;-55
2023/08/23 12:42:25;;;;;;;5.78;2.50;;;27.70;94.80;;;;;;5049526;28;20471;-58
2023/08/23 12:44:52;;;;;;;6.82;2.10;;;27.60;95.00;;;;;;5046363;28;20117;-56